CheckWX is a tool to help pilots better visualize weather data.  It is not intended as a substitute for an official pre-flight weather briefing.

17:09:52 UTC

ENRA METAR
Mo i Rana , Røssvoll Airport
Mo i Rana, Norway
Current

50 mins ago

ENRA 211620Z 16004KT 9999 FEW050 BKN100 21/15 Q1009
Observed
Jul-21 @ 16:20 UTC
Wind
  • 160° at 4 KTS
Visibility
10,000+ meters
Flight Rules
VFR
Cloud Levels
  • Few at 5,000' AGL
  • Broken at 10,000' AGL
Temperature
21°C / 70°F
Dewpoint
15°C / 59°F
Humidity
69%
Altimeter
29.79" Hg
Pressure
1008.92 hPa
Previous

1 hour ago

ENRA 211550Z 09006KT 9999 SCT050 BKN100 21/16 Q1009
Observed
Jul-21 @ 15:50 UTC
Wind
  • 090° at 6 KTS
Visibility
10,000+ meters
Flight Rules
VFR
Cloud Levels
  • Scattered at 5,000' AGL
  • Broken at 10,000' AGL
Temperature
21°C / 70°F
Dewpoint
16°C / 61°F
Humidity
73%
Altimeter
29.79" Hg
Pressure
1008.92 hPa
Previous

2 hours ago

ENRA 211520Z 08006KT 9999 SCT050 BKN100 21/15 Q1010
Observed
Jul-21 @ 15:20 UTC
Wind
  • 080° at 6 KTS
Visibility
10,000+ meters
Flight Rules
VFR
Cloud Levels
  • Scattered at 5,000' AGL
  • Broken at 10,000' AGL
Temperature
21°C / 70°F
Dewpoint
15°C / 59°F
Humidity
69%
Altimeter
29.82" Hg
Pressure
1009.92 hPa